createdAt,value
2018-08-22T00:00:33.584Z,19.91
2018-08-22T00:05:26.050Z,19.85
2018-08-22T00:10:18.974Z,19.75
2018-08-22T00:15:11.558Z,19.62
2018-08-22T00:20:04.125Z,19.55
2018-08-22T00:24:56.606Z,19.49
2018-08-22T00:29:49.088Z,19.42
2018-08-22T00:34:41.589Z,19.36
2018-08-22T00:39:34.576Z,19.29
2018-08-22T00:44:27.099Z,19.21
2018-08-22T00:49:19.569Z,19.10
2018-08-22T00:54:12.026Z,19.01
2018-08-22T00:59:04.530Z,18.96
2018-08-22T01:03:57.172Z,18.89
2018-08-22T01:08:49.608Z,18.86
2018-08-22T01:13:48.916Z,18.81
2018-08-22T01:18:41.369Z,18.75
2018-08-22T01:23:33.826Z,18.69
2018-08-22T01:28:26.278Z,18.60
2018-08-22T01:33:18.863Z,18.56
2018-08-22T01:38:11.424Z,18.50
2018-08-22T01:43:03.941Z,18.46
2018-08-22T01:47:56.419Z,18.42
2018-08-22T01:52:48.941Z,18.34
2018-08-22T01:57:41.458Z,18.26
2018-08-22T02:02:33.954Z,18.17
2018-08-22T02:07:26.451Z,18.08
2018-08-22T02:12:18.897Z,18.01
2018-08-22T02:17:11.403Z,17.97
2018-08-22T02:22:03.883Z,17.93
2018-08-22T02:26:56.515Z,17.88
2018-08-22T02:31:49.227Z,17.82
2018-08-22T02:36:41.635Z,17.77
2018-08-22T02:41:34.085Z,17.69
2018-08-22T02:46:26.672Z,17.64
2018-08-22T02:51:19.154Z,17.60
2018-08-22T02:56:11.606Z,17.54
2018-08-22T03:01:04.100Z,17.51
2018-08-22T03:05:56.575Z,17.46
2018-08-22T03:10:49.092Z,17.40
2018-08-22T03:15:41.596Z,17.35
2018-08-22T03:20:34.082Z,17.28
2018-08-22T03:25:26.588Z,17.27
2018-08-22T03:30:19.084Z,17.23
2018-08-22T03:35:11.561Z,17.23
2018-08-22T03:40:04.007Z,17.21
2018-08-22T03:44:56.439Z,17.13
2018-08-22T03:49:48.956Z,17.09
2018-08-22T03:54:41.400Z,17.01
2018-08-22T03:59:33.906Z,16.99
2018-08-22T04:04:26.495Z,16.95
2018-08-22T04:09:19.024Z,16.90
2018-08-22T04:14:11.503Z,16.85
2018-08-22T04:19:04.209Z,16.84
2018-08-22T04:23:56.735Z,16.80
2018-08-22T04:28:49.245Z,16.79
2018-08-22T04:33:41.801Z,16.80
2018-08-22T04:38:34.297Z,16.79
2018-08-22T04:43:26.795Z,16.78
2018-08-22T04:48:19.338Z,16.76
2018-08-22T04:53:11.836Z,16.74
2018-08-22T04:58:04.481Z,16.74
2018-08-22T05:02:57.039Z,16.74
2018-08-22T05:07:49.544Z,16.76
2018-08-22T05:12:42.095Z,16.79
2018-08-22T05:17:34.935Z,16.83
2018-08-22T05:22:27.504Z,16.86
2018-08-22T05:27:19.992Z,16.94
2018-08-22T05:32:12.997Z,16.96
2018-08-22T05:37:05.579Z,17.04
2018-08-22T05:41:58.017Z,17.09
2018-08-22T05:46:50.613Z,17.15
2018-08-22T05:51:43.178Z,17.18
2018-08-22T05:56:35.731Z,17.21
2018-08-22T06:01:28.308Z,17.28
2018-08-22T06:06:20.850Z,17.36
2018-08-22T06:11:13.338Z,17.45
2018-08-22T06:16:06.790Z,17.58
2018-08-22T06:20:59.411Z,17.73
2018-08-22T06:25:51.950Z,17.85
2018-08-22T06:30:44.586Z,17.95
2018-08-22T06:35:37.255Z,18.03
2018-08-22T06:40:29.815Z,18.13
2018-08-22T06:45:22.357Z,18.27
2018-08-22T06:50:14.922Z,18.63
2018-08-22T06:55:07.491Z,20.07
2018-08-22T07:00:00.090Z,21.59
2018-08-22T07:04:52.605Z,22.88
2018-08-22T07:09:45.135Z,23.96
2018-08-22T07:14:37.663Z,24.69
2018-08-22T07:19:30.216Z,25.39
2018-08-22T07:24:22.897Z,25.92
2018-08-22T07:29:15.436Z,26.41
2018-08-22T07:34:07.912Z,26.79
2018-08-22T07:39:01.213Z,26.94
2018-08-22T07:43:53.856Z,26.86
2018-08-22T07:48:46.490Z,26.76
2018-08-22T07:53:39.043Z,26.52
2018-08-22T07:58:31.588Z,26.18
2018-08-22T08:03:24.225Z,25.89
2018-08-22T08:08:16.909Z,25.71
2018-08-22T08:13:29.180Z,25.68
2018-08-22T08:18:21.744Z,25.62
2018-08-22T08:23:14.467Z,25.60
2018-08-22T08:28:06.944Z,25.59
2018-08-22T08:32:59.425Z,25.57
2018-08-22T08:37:51.994Z,25.55
2018-08-22T08:42:44.543Z,25.54
2018-08-22T08:47:37.133Z,25.56
2018-08-22T08:52:30.927Z,25.56
2018-08-22T08:57:24.530Z,25.55
2018-08-22T09:02:17.067Z,25.53
2018-08-22T09:07:09.583Z,25.52
2018-08-22T09:12:02.441Z,25.55
2018-08-22T09:16:55.545Z,25.59
2018-08-22T09:21:48.409Z,25.60
2018-08-22T09:26:41.484Z,25.80
2018-08-22T09:31:34.107Z,26.01
2018-08-22T09:36:26.815Z,26.20
2018-08-22T09:41:19.626Z,26.30
2018-08-22T09:46:12.145Z,26.41
2018-08-22T09:51:05.116Z,26.64
2018-08-22T09:55:57.623Z,26.88
2018-08-22T10:01:21.608Z,27.09
2018-08-22T10:06:27.846Z,27.10
2018-08-22T10:11:20.358Z,27.12
2018-08-22T10:16:12.849Z,27.18
2018-08-22T10:21:05.374Z,27.30
2018-08-22T10:25:57.978Z,27.22
2018-08-22T10:30:53.431Z,27.16
2018-08-22T10:35:45.931Z,27.23
2018-08-22T10:40:38.524Z,27.37
2018-08-22T10:45:31.288Z,27.41
2018-08-22T10:50:24.107Z,27.41
2018-08-22T10:55:16.719Z,27.66
2018-08-22T11:00:10.135Z,27.93
2018-08-22T11:05:02.683Z,28.07
2018-08-22T11:09:55.321Z,28.12
2018-08-22T11:14:47.936Z,28.23
2018-08-22T11:19:40.640Z,28.40
2018-08-22T11:24:50.871Z,28.57
2018-08-22T11:30:01.184Z,28.84
2018-08-22T11:34:52.501Z,29.05
2018-08-22T11:39:46.573Z,29.13
2018-08-22T11:44:39.178Z,29.35
2018-08-22T11:49:32.203Z,29.48
2018-08-22T11:54:24.776Z,29.43
2018-08-22T11:59:17.603Z,29.38
2018-08-22T12:04:10.299Z,29.59
2018-08-22T12:09:04.419Z,29.70
2018-08-22T12:13:57.242Z,29.87
2018-08-22T12:18:49.723Z,30.07
2018-08-22T12:23:42.337Z,30.14
2018-08-22T12:28:34.859Z,30.27
2018-08-22T12:33:27.451Z,30.33
2018-08-22T12:38:19.973Z,30.25
2018-08-22T12:43:12.485Z,30.07
2018-08-22T12:48:05.144Z,30.13
2018-08-22T12:52:57.680Z,30.38
2018-08-22T12:57:50.201Z,30.54
2018-08-22T13:02:42.894Z,30.61
2018-08-22T13:07:35.454Z,30.67
2018-08-22T13:12:28.611Z,30.74
2018-08-22T13:17:21.208Z,30.79
2018-08-22T13:22:14.136Z,30.93
2018-08-22T13:27:06.656Z,31.04
2018-08-22T13:31:59.276Z,31.26
2018-08-22T13:36:51.806Z,31.38
2018-08-22T13:41:44.449Z,31.33
2018-08-22T13:46:36.919Z,31.28
2018-08-22T13:51:29.494Z,31.15
2018-08-22T13:56:22.096Z,30.98
2018-08-22T14:01:14.777Z,31.05
2018-08-22T14:06:16.074Z,31.14
2018-08-22T14:11:08.479Z,31.22
2018-08-22T14:16:01.043Z,31.37
2018-08-22T14:20:53.693Z,31.51
2018-08-22T14:25:46.236Z,31.52
2018-08-22T14:30:38.742Z,31.46
2018-08-22T14:35:31.194Z,31.46
2018-08-22T14:40:23.705Z,31.41
2018-08-22T14:45:16.933Z,31.33
2018-08-22T14:50:09.600Z,31.26
2018-08-22T14:55:02.797Z,31.32
2018-08-22T14:59:55.351Z,31.30
2018-08-22T15:04:47.869Z,31.22
2018-08-22T15:09:40.366Z,31.20
2018-08-22T15:14:32.896Z,31.27
2018-08-22T15:19:25.563Z,31.32
2018-08-22T15:24:17.996Z,31.24
2018-08-22T15:29:10.484Z,31.05
2018-08-22T15:34:02.983Z,31.03
2018-08-22T15:38:55.396Z,31.03
2018-08-22T15:43:48.154Z,31.06
2018-08-22T15:48:40.720Z,31.04
2018-08-22T15:53:33.435Z,31.09
2018-08-22T15:58:25.940Z,31.18
2018-08-22T16:03:18.787Z,31.08
2018-08-22T16:08:11.915Z,31.03
2018-08-22T16:13:05.615Z,31.01
2018-08-22T16:17:58.414Z,31.01
2018-08-22T16:22:50.900Z,31.02
2018-08-22T16:27:48.848Z,30.95
2018-08-22T16:32:41.329Z,30.83
2018-08-22T16:37:33.836Z,30.81
2018-08-22T16:42:30.176Z,30.82
2018-08-22T16:47:27.415Z,30.77
2018-08-22T16:52:20.057Z,30.70
2018-08-22T16:57:12.542Z,30.61
2018-08-22T17:02:05.666Z,30.55
2018-08-22T17:07:02.831Z,30.47
2018-08-22T17:11:55.256Z,30.38
2018-08-22T17:16:47.762Z,30.34
2018-08-22T17:21:40.309Z,30.29
2018-08-22T17:26:32.804Z,30.24
2018-08-22T17:31:26.674Z,30.16
2018-08-22T17:36:19.286Z,30.08
2018-08-22T17:41:11.983Z,30.00
2018-08-22T17:46:07.507Z,29.91
2018-08-22T17:51:00.139Z,29.81
2018-08-22T17:55:52.624Z,29.71
2018-08-22T18:00:45.135Z,29.61
2018-08-22T18:05:37.659Z,29.52
2018-08-22T18:10:33.325Z,29.42
2018-08-22T18:15:25.865Z,29.32
2018-08-22T18:20:18.507Z,29.22
2018-08-22T18:25:10.992Z,29.12
2018-08-22T18:30:03.547Z,29.01
2018-08-22T18:35:05.184Z,28.83
2018-08-22T18:40:10.319Z,28.64
2018-08-22T18:45:02.832Z,28.46
2018-08-22T18:49:55.343Z,28.34
2018-08-22T18:54:47.974Z,28.18
2018-08-22T18:59:40.447Z,28.04
2018-08-22T19:04:32.904Z,27.92
2018-08-22T19:09:25.363Z,27.78
2018-08-22T19:14:48.366Z,27.65
2018-08-22T19:19:43.676Z,27.51
2018-08-22T19:24:36.136Z,27.40
2018-08-22T19:29:28.685Z,27.28
2018-08-22T19:34:21.244Z,27.18
2018-08-22T19:39:13.744Z,27.22
2018-08-22T19:44:06.220Z,27.09
2018-08-22T19:49:00.249Z,26.98
2018-08-22T19:54:03.491Z,26.83
2018-08-22T19:58:56.309Z,26.74
2018-08-22T20:03:52.919Z,26.62
2018-08-22T20:08:45.371Z,26.55
2018-08-22T20:13:48.879Z,26.47
2018-08-22T20:18:41.447Z,26.39
2018-08-22T20:23:34.226Z,26.32
2018-08-22T20:28:26.769Z,26.25
2018-08-22T20:33:19.312Z,26.22
2018-08-22T20:38:12.628Z,26.16
2018-08-22T20:43:07.476Z,26.07
2018-08-22T20:48:05.821Z,26.00
2018-08-22T20:53:00.416Z,25.92
2018-08-22T20:57:52.928Z,25.84
2018-08-22T21:02:45.452Z,25.81
2018-08-22T21:07:38.668Z,25.85
2018-08-22T21:12:31.106Z,25.87
2018-08-22T21:17:23.618Z,25.90
2018-08-22T21:22:27.427Z,25.84
2018-08-22T21:27:19.891Z,25.57
2018-08-22T21:32:12.353Z,25.32
2018-08-22T21:37:20.983Z,25.21
2018-08-22T21:42:15.587Z,25.10
2018-08-22T21:47:08.127Z,24.94
2018-08-22T21:52:00.958Z,24.80
2018-08-22T21:56:53.817Z,24.64
2018-08-22T22:01:52.060Z,24.52
2018-08-22T22:06:44.736Z,24.38
2018-08-22T22:11:37.224Z,24.26
2018-08-22T22:16:30.733Z,24.15
2018-08-22T22:21:23.232Z,24.00
2018-08-22T22:26:17.064Z,23.94
2018-08-22T22:31:11.403Z,23.90
2018-08-22T22:36:03.919Z,23.81
2018-08-22T22:40:56.420Z,23.73
2018-08-22T22:45:49.240Z,23.64
2018-08-22T22:50:41.689Z,23.60
2018-08-22T22:55:34.215Z,23.52
2018-08-22T23:00:28.963Z,23.37
2018-08-22T23:05:21.486Z,23.26
2018-08-22T23:10:14.589Z,23.18
2018-08-22T23:15:09.796Z,23.13
2018-08-22T23:20:31.676Z,23.02
2018-08-22T23:25:24.493Z,22.98
2018-08-22T23:30:24.212Z,22.91
2018-08-22T23:35:25.966Z,22.81
2018-08-22T23:40:18.782Z,22.75
2018-08-22T23:45:11.642Z,22.66
2018-08-22T23:50:04.341Z,22.59
2018-08-22T23:54:56.825Z,22.50
2018-08-22T23:59:49.282Z,22.43
